Time;durP1;ratioP1;P1;durP2;ratioP2;P2;SDS_P1;SDS_P2;PMS_P1;PMS_P2;Temp;Humidity;BMP_temperature;BMP_pressure;BME280_temperature;BME280_humidity;BME280_pressure;Samples;Min_cycle;Max_cycle;Signal;HPM_P1;HPM_P2
2020/12/27 00:00:03;;;;;;;10.52;4.37;;;3.00;68.00;;;;;;2261376;56;21075;-72
2020/12/27 00:02:30;;;;;;;12.88;5.72;;;3.00;68.20;;;;;;2490695;55;20964;-72
2020/12/27 00:04:56;;;;;;;13.73;6.53;;;2.90;68.20;;;;;;2464757;55;20996;-71
2020/12/27 00:07:23;;;;;;;12.98;5.75;;;2.90;68.20;;;;;;2490800;55;21742;-71
2020/12/27 00:09:50;;;;;;;12.27;5.80;;;2.90;68.30;;;;;;2491476;55;21440;-72
2020/12/27 00:12:19;;;;;;;18.20;7.75;;;2.90;68.50;;;;;;2263985;56;21020;-72
2020/12/27 00:14:45;;;;;;;14.87;6.82;;;2.90;68.50;;;;;;2466430;55;20937;-71
2020/12/27 00:17:13;;;;;;;17.40;7.20;;;2.90;68.60;;;;;;2490524;55;20988;-72
2020/12/27 00:19:39;;;;;;;15.57;5.85;;;2.90;68.80;;;;;;2263953;55;21878;-72
2020/12/27 00:22:07;;;;;;;14.45;7.47;;;2.90;68.90;;;;;;2265859;55;21811;-71
2020/12/27 00:24:33;;;;;;;16.58;7.15;;;2.90;68.90;;;;;;2487649;55;21056;-71
2020/12/27 00:27:00;;;;;;;18.17;7.70;;;2.90;69.00;;;;;;2263458;55;22279;-72
2020/12/27 00:29:26;;;;;;;15.65;7.57;;;2.90;69.10;;;;;;2262993;55;21406;-72
2020/12/27 00:31:54;;;;;;;14.48;7.28;;;2.90;69.10;;;;;;2266638;55;21838;-71
2020/12/27 00:34:20;;;;;;;13.52;6.35;;;3.00;69.20;;;;;;2490389;55;20948;-71
2020/12/27 00:36:48;;;;;;;14.93;6.50;;;3.00;69.30;;;;;;2265163;55;21556;-72
2020/12/27 00:39:15;;;;;;;11.23;6.07;;;3.00;69.20;;;;;;2477766;55;20964;-71
2020/12/27 00:41:42;;;;;;;13.93;6.25;;;3.00;69.30;;;;;;2263664;56;21647;-72
2020/12/27 00:44:08;;;;;;;14.57;5.25;;;3.00;69.20;;;;;;2488411;55;20965;-71
2020/12/27 00:46:35;;;;;;;12.35;6.03;;;3.00;69.30;;;;;;2263455;56;20972;-71
2020/12/27 00:49:02;;;;;;;9.93;5.68;;;3.00;69.20;;;;;;2266635;55;21020;-72
2020/12/27 00:51:29;;;;;;;9.57;4.93;;;3.10;69.20;;;;;;2251357;56;20920;-72
2020/12/27 00:53:58;;;;;;;12.90;6.00;;;3.10;69.20;;;;;;2261951;56;21688;-71
2020/12/27 00:56:25;;;;;;;13.35;6.45;;;3.10;69.10;;;;;;2489725;55;20921;-71
2020/12/27 00:58:52;;;;;;;10.85;5.20;;;3.10;69.10;;;;;;2489477;55;21111;-71
2020/12/27 01:01:20;;;;;;;11.23;5.75;;;3.10;69.00;;;;;;2263706;55;21414;-72
2020/12/27 01:03:58;;;;;;;10.10;5.07;;;3.10;68.90;;;;;;2489661;55;20976;-72
2020/12/27 01:06:28;;;;;;;9.70;4.50;;;3.10;68.80;;;;;;2260786;56;21021;-71
2020/12/27 01:08:55;;;;;;;10.70;4.93;;;3.10;68.80;;;;;;2484615;55;21088;-71
2020/12/27 01:11:22;;;;;;;9.07;4.68;;;3.10;68.70;;;;;;2254929;56;20948;-71
2020/12/27 01:13:49;;;;;;;11.30;4.62;;;3.10;68.70;;;;;;2491170;55;21036;-72
2020/12/27 01:16:21;;;;;;;8.77;4.60;;;3.10;68.70;;;;;;2477310;55;21052;-72
2020/12/27 01:18:47;;;;;;;9.70;4.82;;;3.10;68.70;;;;;;2464630;55;21155;-71
2020/12/27 01:21:41;;;;;;;8.88;4.37;;;3.10;68.70;;;;;;2262083;55;21786;-72
2020/12/27 01:24:07;;;;;;;10.05;4.75;;;3.10;68.50;;;;;;2490571;55;21051;-71
2020/12/27 01:26:35;;;;;;;10.75;5.30;;;3.10;68.60;;;;;;2245596;56;21328;-71
2020/12/27 01:29:01;;;;;;;11.15;4.85;;;3.10;68.50;;;;;;2265900;55;21022;-72
2020/12/27 01:31:29;;;;;;;10.68;5.35;;;3.00;68.50;;;;;;2263665;55;21890;-71
2020/12/27 01:33:56;;;;;;;13.18;4.75;;;3.00;68.60;;;;;;2491616;55;20992;-72
2020/12/27 01:36:27;;;;;;;10.63;5.53;;;3.00;68.80;;;;;;2265875;56;20964;-71
2020/12/27 01:38:54;;;;;;;13.73;5.12;;;3.00;68.90;;;;;;2489060;55;21809;-72
2020/12/27 01:41:21;;;;;;;10.43;5.03;;;3.00;69.10;;;;;;2489915;55;21106;-71
2020/12/27 01:44:07;;;;;;;11.18;5.07;;;3.00;69.20;;;;;;2253111;56;21449;-70
2020/12/27 01:46:41;;;;;;;8.30;4.43;;;3.10;69.30;;;;;;2490883;55;21880;-71
2020/12/27 01:49:07;;;;;;;12.98;5.03;;;3.10;69.50;;;;;;2263931;55;21927;-71
2020/12/27 01:51:34;;;;;;;13.27;5.78;;;3.10;69.50;;;;;;2261383;56;20960;-71
2020/12/27 01:54:01;;;;;;;13.65;5.95;;;3.10;69.60;;;;;;2490684;55;21041;-72
2020/12/27 01:56:33;;;;;;;10.82;5.30;;;3.20;69.70;;;;;;2463420;55;21527;-71
2020/12/27 01:59:18;;;;;;;12.55;5.57;;;3.20;69.60;;;;;;2489924;55;20960;-72
2020/12/27 02:01:47;;;;;;;11.43;5.22;;;3.30;69.40;;;;;;2465049;55;20965;-72
2020/12/27 02:04:14;;;;;;;11.10;5.60;;;3.30;69.60;;;;;;2243325;57;20969;-71
2020/12/27 02:06:41;;;;;;;11.68;5.72;;;3.30;69.70;;;;;;2490001;55;21429;-72
2020/12/27 02:09:08;;;;;;;11.15;5.95;;;3.30;69.70;;;;;;2260018;56;21901;-72
2020/12/27 02:11:35;;;;;;;12.80;5.85;;;3.40;69.40;;;;;;2490665;55;21015;-71
2020/12/27 02:14:01;;;;;;;14.38;5.53;;;3.40;69.30;;;;;;2490970;55;20965;-71
2020/12/27 02:16:29;;;;;;;9.63;5.05;;;3.40;69.40;;;;;;2262347;56;21012;-72
2020/12/27 02:19:02;;;;;;;9.50;4.85;;;3.40;69.50;;;;;;2261734;56;20989;-71
2020/12/27 02:21:30;;;;;;;9.75;4.75;;;3.40;69.40;;;;;;2491179;55;21067;-71
2020/12/27 02:23:59;;;;;;;8.45;4.22;;;3.40;69.20;;;;;;2474852;55;21004;-70
2020/12/27 02:26:26;;;;;;;9.75;4.57;;;3.50;69.30;;;;;;2264300;55;21012;-71
2020/12/27 02:28:53;;;;;;;9.15;5.03;;;3.50;69.00;;;;;;2260584;55;21111;-70
2020/12/27 02:31:26;;;;;;;13.23;4.90;;;3.50;69.10;;;;;;2492001;55;21039;-71
2020/12/27 02:33:53;;;;;;;9.23;4.60;;;3.50;68.90;;;;;;2477842;55;21754;-71
2020/12/27 02:36:19;;;;;;;10.38;4.25;;;3.50;69.10;;;;;;2265398;56;21312;-71
2020/12/27 02:38:46;;;;;;;8.95;4.40;;;3.60;69.20;;;;;;2245719;56;21024;-70
2020/12/27 02:41:15;;;;;;;8.10;4.07;;;3.60;69.20;;;;;;2490113;55;20949;-72
2020/12/27 02:43:42;;;;;;;9.25;4.20;;;3.60;69.20;;;;;;2490502;55;21037;-70
2020/12/27 02:46:22;;;;;;;10.10;4.22;;;3.60;69.20;;;;;;2490863;55;21699;-72
2020/12/27 02:48:49;;;;;;;8.18;4.12;;;3.70;69.10;;;;;;2464569;55;20953;-72
2020/12/27 02:51:20;;;;;;;8.52;3.95;;;3.70;69.20;;;;;;2489612;55;20976;-71
2020/12/27 02:53:49;;;;;;;7.78;4.18;;;3.70;69.10;;;;;;2261597;56;21036;-71
2020/12/27 02:56:26;;;;;;;9.23;4.07;;;3.70;69.30;;;;;;2261555;56;20987;-72
2020/12/27 02:58:54;;;;;;;9.68;3.78;;;3.80;68.80;;;;;;2490494;55;21067;-71
2020/12/27 03:01:20;;;;;;;6.87;3.72;;;3.80;68.90;;;;;;2255635;56;21017;-71
2020/12/27 03:03:48;;;;;;;7.22;3.90;;;3.80;69.00;;;;;;2465017;55;21000;-72
2020/12/27 03:06:24;;;;;;;7.78;3.72;;;3.90;69.00;;;;;;2264815;56;21057;-71
2020/12/27 03:08:54;;;;;;;7.40;3.40;;;3.90;69.10;;;;;;2261412;56;21249;-72
2020/12/27 03:11:22;;;;;;;8.55;4.10;;;3.90;68.90;;;;;;2464756;55;21644;-71
2020/12/27 03:13:49;;;;;;;8.77;3.65;;;3.90;68.50;;;;;;2489785;55;20980;-70
2020/12/27 03:16:19;;;;;;;9.93;3.67;;;3.90;68.40;;;;;;2263785;56;21060;-71
2020/12/27 03:18:45;;;;;;;7.40;3.50;;;4.00;68.50;;;;;;2265009;56;21008;-72
2020/12/27 03:21:12;;;;;;;8.57;3.87;;;4.00;68.20;;;;;;2261312;56;21779;-71
2020/12/27 03:23:39;;;;;;;6.43;3.28;;;4.00;68.20;;;;;;2490237;55;21357;-71
2020/12/27 03:26:05;;;;;;;8.07;3.40;;;4.00;68.10;;;;;;2265146;56;21056;-71
2020/12/27 03:28:35;;;;;;;7.62;3.78;;;4.00;68.10;;;;;;2476306;55;21019;-71
2020/12/27 03:31:04;;;;;;;10.10;4.28;;;4.00;68.00;;;;;;2253027;56;21906;-71
2020/12/27 03:33:33;;;;;;;8.65;3.40;;;4.10;67.60;;;;;;2267654;55;20986;-71
2020/12/27 03:36:00;;;;;;;7.85;3.12;;;4.10;67.90;;;;;;2257199;56;20960;-71
2020/12/27 03:38:34;;;;;;;9.15;3.22;;;4.10;67.80;;;;;;2264656;55;20980;-72
2020/12/27 03:41:01;;;;;;;5.90;2.92;;;4.10;67.70;;;;;;2265112;55;21017;-71
2020/12/27 03:43:28;;;;;;;9.07;3.03;;;4.10;68.00;;;;;;2250076;55;21485;-72
2020/12/27 03:45:57;;;;;;;6.60;3.08;;;4.10;67.70;;;;;;2490611;55;21075;-72
2020/12/27 03:48:24;;;;;;;7.93;3.00;;;4.10;67.50;;;;;;2243136;57;21040;-72
2020/12/27 03:50:51;;;;;;;6.32;3.40;;;4.10;67.50;;;;;;2489934;55;20988;-70
2020/12/27 03:53:17;;;;;;;5.90;2.97;;;4.10;67.50;;;;;;2264464;55;21489;-72
2020/12/27 03:55:43;;;;;;;4.87;2.70;;;4.10;67.50;;;;;;2261423;56;21020;-71
2020/12/27 03:58:14;;;;;;;6.65;2.83;;;4.10;68.00;;;;;;2264948;55;21005;-71
2020/12/27 04:00:40;;;;;;;6.03;2.40;;;4.10;67.60;;;;;;2261627;56;21046;-71
2020/12/27 04:03:07;;;;;;;6.50;2.67;;;4.10;67.80;;;;;;2262430;56;20996;-71
2020/12/27 04:05:35;;;;;;;6.37;2.95;;;4.10;68.00;;;;;;2490649;55;20999;-72
2020/12/27 04:08:02;;;;;;;7.45;3.25;;;4.10;67.90;;;;;;2248167;56;20960;-70
2020/12/27 04:10:28;;;;;;;6.70;2.80;;;4.10;67.50;;;;;;2260957;56;20964;-72
2020/12/27 04:12:55;;;;;;;8.25;3.00;;;4.10;67.50;;;;;;2264377;55;20956;-72
2020/12/27 04:15:21;;;;;;;5.53;2.92;;;4.10;66.70;;;;;;2490344;55;20995;-71
2020/12/27 04:17:48;;;;;;;6.22;2.62;;;4.10;66.80;;;;;;2262564;56;20976;-72
2020/12/27 04:20:16;;;;;;;5.12;2.30;;;4.10;67.00;;;;;;2261645;56;21489;-70
2020/12/27 04:22:42;;;;;;;5.65;2.30;;;4.10;67.20;;;;;;2490673;55;21000;-71
2020/12/27 04:25:09;;;;;;;5.62;2.97;;;4.10;67.10;;;;;;2264207;55;20980;-71
2020/12/27 04:27:35;;;;;;;6.03;2.53;;;4.10;67.20;;;;;;2490060;55;20975;-72
2020/12/27 04:30:02;;;;;;;5.55;2.30;;;4.10;67.00;;;;;;2249581;55;21343;-72
2020/12/27 04:32:28;;;;;;;5.10;2.70;;;4.10;67.10;;;;;;2262098;55;21412;-71
2020/12/27 04:34:54;;;;;;;4.40;2.25;;;4.10;67.20;;;;;;2268764;56;21035;-70
2020/12/27 04:37:23;;;;;;;6.50;2.80;;;4.10;67.10;;;;;;2480872;55;20980;-72
2020/12/27 04:39:51;;;;;;;5.00;2.40;;;4.10;67.60;;;;;;2243139;56;20961;-71
2020/12/27 04:42:19;;;;;;;5.25;2.55;;;4.10;66.90;;;;;;2262688;56;21067;-71
2020/12/27 04:44:48;;;;;;;5.68;2.25;;;4.10;66.40;;;;;;2265940;56;20955;-72
2020/12/27 04:47:14;;;;;;;5.93;2.90;;;4.20;66.60;;;;;;2489931;55;21512;-70
2020/12/27 04:49:44;;;;;;;7.12;2.78;;;4.20;66.90;;;;;;2272130;55;20946;-71
2020/12/27 04:52:11;;;;;;;5.87;2.45;;;4.20;65.90;;;;;;2256804;56;21078;-70
2020/12/27 04:54:38;;;;;;;5.65;2.47;;;4.20;66.00;;;;;;2245338;56;21024;-69
2020/12/27 04:57:07;;;;;;;5.40;2.40;;;4.20;66.20;;;;;;2464560;55;21021;-70
2020/12/27 04:59:37;;;;;;;4.15;2.17;;;4.20;66.40;;;;;;2261857;56;20949;-70
2020/12/27 05:02:04;;;;;;;4.78;2.60;;;4.20;66.60;;;;;;2266131;55;21114;-71
2020/12/27 05:04:31;;;;;;;5.03;2.60;;;4.20;65.90;;;;;;2261362;56;21012;-69
2020/12/27 05:06:57;;;;;;;7.43;2.53;;;4.20;66.50;;;;;;2261362;56;21031;-71
2020/12/27 05:09:29;;;;;;;8.63;3.20;;;4.20;66.40;;;;;;2265228;55;20971;-71
2020/12/27 05:11:56;;;;;;;5.03;2.60;;;4.20;66.60;;;;;;2480687;55;20985;-70
2020/12/27 05:14:28;;;;;;;5.37;2.58;;;4.20;66.20;;;;;;2259600;56;20940;-70
2020/12/27 05:16:55;;;;;;;;;;;4.20;66.30;;;;;;2493670;55;21045;-71
2020/12/27 05:19:22;;;;;;;5.70;3.10;;;4.20;65.50;;;;;;2261830;56;20125;-70
2020/12/27 05:21:48;;;;;;;5.07;2.72;;;4.20;66.30;;;;;;2266144;55;21024;-70
2020/12/27 05:24:19;;;;;;;6.03;2.55;;;4.20;66.30;;;;;;2483443;55;20992;-70
2020/12/27 05:26:47;;;;;;;5.15;2.35;;;4.20;66.70;;;;;;2257249;56;21452;-71
2020/12/27 05:29:36;;;;;;;5.15;2.10;;;4.20;66.20;;;;;;2490147;55;20966;-71
2020/12/27 05:32:03;;;;;;;5.32;2.35;;;4.20;65.70;;;;;;2262876;56;21032;-71
2020/12/27 05:34:30;;;;;;;4.90;2.33;;;4.20;66.30;;;;;;2490616;55;23503;-71
2020/12/27 05:36:58;;;;;;;5.10;2.40;;;4.20;65.70;;;;;;2265285;55;21024;-70
2020/12/27 05:39:26;;;;;;;6.50;2.17;;;4.20;65.60;;;;;;2246909;55;21427;-70
2020/12/27 05:42:05;;;;;;;4.10;2.12;;;4.20;65.50;;;;;;2487854;55;21008;-71
2020/12/27 05:44:38;;;;;;;5.03;2.40;;;4.20;65.60;;;;;;2490746;55;21004;-70
2020/12/27 05:47:05;;;;;;;4.75;2.15;;;4.20;66.00;;;;;;2264285;55;21059;-70
2020/12/27 05:49:32;;;;;;;5.40;1.90;;;4.20;66.00;;;;;;2490978;55;21488;-70
2020/12/27 05:52:01;;;;;;;7.18;2.30;;;4.20;66.00;;;;;;2261482;56;21083;-71
2020/12/27 05:54:47;;;;;;;3.75;2.03;;;4.20;66.10;;;;;;2262446;56;20964;-71
2020/12/27 05:57:15;;;;;;;4.45;2.28;;;4.20;65.80;;;;;;2262047;56;20969;-69
2020/12/27 05:59:45;;;;;;;5.93;2.10;;;4.20;66.00;;;;;;2490228;55;21008;-71
2020/12/27 06:02:49;;;;;;;4.03;1.90;;;4.20;66.00;;;;;;2244166;57;21008;-71
2020/12/27 06:05:15;;;;;;;3.62;1.58;;;4.20;65.20;;;;;;2490222;55;21028;-70
2020/12/27 06:07:45;;;;;;;6.80;2.05;;;4.20;65.90;;;;;;2490400;55;20945;-71
2020/12/27 06:10:14;;;;;;;6.28;2.00;;;4.20;65.60;;;;;;2490527;55;20928;-70
2020/12/27 06:14:51;;;;;;;6.72;2.30;;;4.20;65.40;;;;;;2267817;55;21523;-71
2020/12/27 06:17:20;;;;;;;3.92;1.95;;;4.20;64.90;;;;;;2264117;55;21001;-70
2020/12/27 06:19:57;;;;;;;4.85;2.25;;;4.20;65.40;;;;;;2490435;55;21112;-70
2020/12/27 06:22:31;;;;;;;4.25;1.92;;;4.20;64.90;;;;;;2262551;56;21000;-69
2020/12/27 06:24:59;;;;;;;4.53;1.95;;;4.20;65.00;;;;;;2260497;55;21110;-70
2020/12/27 06:27:29;;;;;;;6.25;2.08;;;4.20;65.30;;;;;;2268094;55;21042;-71
2020/12/27 06:30:07;;;;;;;6.32;2.30;;;4.20;65.20;;;;;;2478705;55;20952;-70
2020/12/27 06:32:42;;;;;;;4.32;1.95;;;4.20;64.80;;;;;;2488222;55;21016;-70
2020/12/27 06:35:10;;;;;;;3.87;1.70;;;4.20;65.10;;;;;;2488892;55;20992;-70
2020/12/27 06:37:49;;;;;;;3.80;1.70;;;4.20;65.30;;;;;;2264579;56;21015;-70
2020/12/27 06:40:29;;;;;;;6.10;2.10;;;4.20;65.10;;;;;;2488019;55;21352;-72
2020/12/27 06:43:22;;;;;;;4.90;2.10;;;4.20;65.10;;;;;;2265133;55;20967;-70
2020/12/27 06:45:49;;;;;;;6.47;2.00;;;4.20;64.40;;;;;;2243353;57;20942;-70
2020/12/27 06:48:36;;;;;;;5.72;2.45;;;4.20;64.60;;;;;;2489894;55;21056;-71
2020/12/27 06:51:03;;;;;;;5.30;2.05;;;4.20;63.10;;;;;;2490436;55;21429;-69
2020/12/27 06:53:43;;;;;;;3.62;1.75;;;4.20;63.50;;;;;;2257677;55;21008;-71
2020/12/27 06:56:10;;;;;;;4.45;1.98;;;4.20;64.00;;;;;;2249779;56;21056;-70
2020/12/27 06:58:39;;;;;;;3.62;1.65;;;4.20;63.80;;;;;;2472771;55;20992;-70
2020/12/27 07:01:22;;;;;;;3.50;1.60;;;4.20;64.10;;;;;;2264331;56;20993;-71
2020/12/27 07:04:08;;;;;;;5.65;2.20;;;4.30;64.50;;;;;;2491087;55;20964;-71
2020/12/27 07:06:38;;;;;;;4.62;1.90;;;4.30;64.40;;;;;;2270986;55;21069;-71
2020/12/27 07:09:06;;;;;;;5.75;2.08;;;4.30;64.30;;;;;;2485853;55;21898;-71
2020/12/27 07:11:32;;;;;;;5.05;1.90;;;4.30;65.40;;;;;;2482078;55;21080;-70
2020/12/27 07:13:59;;;;;;;6.40;2.17;;;4.30;64.50;;;;;;2257258;56;20957;-71
2020/12/27 07:16:48;;;;;;;6.00;1.80;;;4.30;64.40;;;;;;2489545;55;21018;-71
2020/12/27 07:19:15;;;;;;;5.30;1.98;;;4.30;63.30;;;;;;2245330;55;21012;-72
2020/12/27 07:21:47;;;;;;;5.20;1.90;;;4.30;64.10;;;;;;2260265;56;21032;-71
2020/12/27 07:24:24;;;;;;;5.35;2.20;;;4.30;64.00;;;;;;2269019;55;20985;-70
2020/12/27 07:26:52;;;;;;;5.20;1.80;;;4.30;63.60;;;;;;2470748;55;20973;-70
2020/12/27 07:29:20;;;;;;;6.72;1.70;;;4.30;64.00;;;;;;2261983;56;21048;-71
2020/12/27 07:31:47;;;;;;;4.37;1.90;;;4.40;64.20;;;;;;2264352;55;20949;-71
2020/12/27 07:34:14;;;;;;;6.70;2.12;;;4.30;64.30;;;;;;2491259;55;20960;-72
2020/12/27 07:36:41;;;;;;;4.57;2.00;;;4.40;63.60;;;;;;2265783;55;20989;-70
2020/12/27 07:39:17;;;;;;;4.03;1.50;;;4.40;64.00;;;;;;2480632;55;21847;-72
2020/12/27 07:41:47;;;;;;;4.97;1.60;;;4.40;64.30;;;;;;2488752;55;20991;-71
2020/12/27 07:44:15;;;;;;;5.18;1.87;;;4.40;64.20;;;;;;2489041;55;21020;-70
2020/12/27 07:46:42;;;;;;;2.95;1.58;;;4.40;63.90;;;;;;2482214;55;20965;-71
2020/12/27 07:49:09;;;;;;;4.65;2.12;;;4.40;64.20;;;;;;2247075;56;20957;-71
2020/12/27 07:51:36;;;;;;;4.03;1.75;;;4.40;64.30;;;;;;2471030;55;21085;-72
2020/12/27 07:54:03;;;;;;;4.97;1.95;;;4.50;63.60;;;;;;2247180;56;20940;-71
2020/12/27 07:56:32;;;;;;;4.70;1.95;;;4.40;63.80;;;;;;2261394;56;20953;-72
2020/12/27 07:59:02;;;;;;;5.87;1.90;;;4.40;63.30;;;;;;2490019;55;20968;-71
2020/12/27 08:01:33;;;;;;;3.17;1.42;;;4.50;63.70;;;;;;2263209;56;21429;-71
2020/12/27 08:04:06;;;;;;;4.22;1.95;;;4.50;63.60;;;;;;2242091;57;20983;-71
2020/12/27 08:06:37;;;;;;;5.47;1.58;;;4.50;63.60;;;;;;2489874;55;21554;-71
2020/12/27 08:09:07;;;;;;;3.80;1.60;;;4.50;64.30;;;;;;2483780;55;20989;-71
2020/12/27 08:11:43;;;;;;;5.35;1.90;;;4.60;64.30;;;;;;2256499;56;21451;-70
2020/12/27 08:14:11;;;;;;;4.50;1.75;;;4.60;63.80;;;;;;2259118;56;20973;-71
2020/12/27 08:16:38;;;;;;;4.32;1.80;;;4.60;63.90;;;;;;2489758;55;20961;-71
2020/12/27 08:19:10;;;;;;;3.33;1.60;;;4.70;64.50;;;;;;2260552;56;20964;-71
2020/12/27 08:21:39;;;;;;;3.92;1.70;;;4.70;64.00;;;;;;2262550;55;21203;-71
2020/12/27 08:24:16;;;;;;;4.45;2.05;;;4.70;64.10;;;;;;2261462;56;20981;-71
2020/12/27 08:26:43;;;;;;;4.90;2.53;;;4.80;64.20;;;;;;2262167;55;21773;-70
2020/12/27 08:29:17;;;;;;;6.28;2.50;;;4.80;64.10;;;;;;2249689;56;21557;-71
2020/12/27 08:31:47;;;;;;;3.55;1.70;;;4.90;64.30;;;;;;2243513;56;20996;-71
2020/12/27 08:34:15;;;;;;;4.72;2.20;;;4.90;64.10;;;;;;2257449;56;21053;-71
2020/12/27 08:36:49;;;;;;;3.60;1.83;;;4.90;63.80;;;;;;2490314;55;21012;-72
2020/12/27 08:39:31;;;;;;;3.83;1.60;;;5.00;63.60;;;;;;2255981;55;21125;-71
2020/12/27 08:42:58;;;;;;;3.50;1.55;;;5.00;63.30;;;;;;2488003;55;20976;-70
2020/12/27 08:45:25;;;;;;;4.15;1.60;;;5.10;63.50;;;;;;2261187;56;20952;-71
2020/12/27 08:48:13;;;;;;;3.45;1.58;;;5.10;63.50;;;;;;2261004;56;21079;-70
2020/12/27 08:50:42;;;;;;;3.58;1.30;;;5.20;63.60;;;;;;2263905;55;21073;-71
2020/12/27 08:53:09;;;;;;;3.22;1.48;;;5.20;64.10;;;;;;2490470;55;21533;-72
2020/12/27 08:55:37;;;;;;;3.22;1.40;;;5.20;62.90;;;;;;2264198;55;20973;-71
2020/12/27 08:58:16;;;;;;;2.87;1.40;;;5.30;63.30;;;;;;2267120;55;20988;-71
2020/12/27 09:00:48;;;;;;;4.20;1.48;;;5.30;63.40;;;;;;2259877;56;21036;-72
2020/12/27 09:03:17;;;;;;;3.30;1.30;;;5.40;63.10;;;;;;2249571;55;20941;-71
2020/12/27 09:05:44;;;;;;;3.72;1.20;;;5.40;63.30;;;;;;2258064;55;21065;-71
2020/12/27 09:08:17;;;;;;;3.28;1.30;;;5.50;63.30;;;;;;2255079;56;20997;-73
2020/12/27 09:10:43;;;;;;;3.83;1.30;;;5.50;62.40;;;;;;2488744;55;20957;-71
2020/12/27 09:13:14;;;;;;;3.42;1.20;;;5.50;63.20;;;;;;2490813;55;20944;-72
2020/12/27 09:15:49;;;;;;;2.90;1.10;;;5.60;63.00;;;;;;2247128;55;20984;-71
2020/12/27 09:18:31;;;;;;;3.70;1.30;;;5.60;62.70;;;;;;2489810;55;21800;-70
2020/12/27 09:21:01;;;;;;;4.45;1.73;;;5.70;62.90;;;;;;2259576;56;20968;-71
2020/12/27 09:23:28;;;;;;;4.95;2.35;;;5.70;63.50;;;;;;2262020;56;20952;-71
2020/12/27 09:27:18;;;;;;;3.83;1.60;;;5.80;63.00;;;;;;2488866;55;21043;-71
2020/12/27 09:29:58;;;;;;;4.82;1.48;;;5.90;62.40;;;;;;2489763;55;21824;-72
2020/12/27 09:32:34;;;;;;;2.47;1.10;;;5.90;62.80;;;;;;2262010;55;21847;-70
2020/12/27 09:35:01;;;;;;;3.50;1.20;;;6.00;62.40;;;;;;2259379;55;21366;-71
2020/12/27 09:37:36;;;;;;;4.07;1.20;;;6.00;62.80;;;;;;2264341;55;21009;-72
2020/12/27 09:40:03;;;;;;;2.87;1.15;;;6.10;63.10;;;;;;2264883;56;20980;-72
2020/12/27 09:42:32;;;;;;;1.83;0.90;;;6.10;63.10;;;;;;2261308;56;20996;-71
2020/12/27 09:45:17;;;;;;;2.40;1.10;;;6.10;63.40;;;;;;2263960;55;21076;-71
2020/12/27 09:47:57;;;;;;;3.60;1.35;;;6.20;64.10;;;;;;2263096;55;21004;-71
2020/12/27 09:50:36;;;;;;;3.05;1.35;;;6.30;64.20;;;;;;2265252;55;21016;-70
2020/12/27 09:53:03;;;;;;;3.67;1.20;;;6.40;63.80;;;;;;2257655;55;21950;-71
2020/12/27 09:55:30;;;;;;;2.83;1.02;;;6.40;64.30;;;;;;2473119;55;21021;-70
2020/12/27 09:57:59;;;;;;;2.97;1.05;;;6.50;64.30;;;;;;2252486;55;21049;-71
2020/12/27 10:00:26;;;;;;;2.03;0.90;;;6.50;64.40;;;;;;2251797;56;21052;-71
2020/12/27 10:02:53;;;;;;;2.45;0.90;;;6.50;63.80;;;;;;2490463;55;21032;-71
2020/12/27 10:05:19;;;;;;;1.65;0.77;;;6.60;62.60;;;;;;2268587;55;20986;-71
2020/12/27 10:07:46;;;;;;;2.53;1.00;;;6.60;63.10;;;;;;2476311;55;21650;-70
2020/12/27 10:10:13;;;;;;;2.37;0.90;;;6.70;62.30;;;;;;2201723;56;1326167;-72
2020/12/27 10:12:40;;;;;;;2.80;0.90;;;6.70;62.70;;;;;;2486506;55;21557;-71
2020/12/27 10:15:08;;;;;;;2.15;0.85;;;6.80;62.40;;;;;;2258648;56;21503;-72
2020/12/27 10:17:34;;;;;;;1.85;0.70;;;6.80;63.30;;;;;;2489870;55;20968;-72
2020/12/27 10:20:01;;;;;;;2.15;0.82;;;6.80;63.30;;;;;;2261752;56;20984;-71
2020/12/27 10:22:28;;;;;;;1.73;0.70;;;6.90;63.30;;;;;;2489880;55;20933;-72
2020/12/27 10:24:54;;;;;;;2.55;0.77;;;6.90;63.90;;;;;;2490151;55;20976;-71
2020/12/27 10:27:21;;;;;;;2.28;0.70;;;7.00;63.80;;;;;;2489179;55;21003;-72
2020/12/27 10:29:50;;;;;;;2.50;1.10;;;7.00;62.40;;;;;;2260804;56;21004;-71
2020/12/27 10:32:16;;;;;;;1.73;0.80;;;7.10;62.40;;;;;;2264470;55;20963;-71
2020/12/27 10:34:43;;;;;;;1.23;0.60;;;7.10;62.90;;;;;;2251373;56;21005;-70
2020/12/27 10:37:10;;;;;;;1.30;0.60;;;7.10;63.10;;;;;;2246297;55;21044;-70
2020/12/27 10:39:37;;;;;;;1.55;0.60;;;7.20;62.80;;;;;;2487964;55;21020;-71
2020/12/27 10:42:15;;;;;;;2.05;0.62;;;7.30;62.90;;;;;;2490207;55;20975;-71
2020/12/27 10:44:42;;;;;;;2.05;0.52;;;7.30;62.20;;;;;;2462869;55;20985;-71
2020/12/27 10:47:09;;;;;;;1.30;0.70;;;7.40;63.10;;;;;;2490438;55;20984;-71
2020/12/27 10:49:36;;;;;;;1.40;0.60;;;7.40;63.40;;;;;;2260705;55;21919;-72
2020/12/27 10:52:02;;;;;;;1.80;0.70;;;7.40;63.30;;;;;;2474257;55;21061;-71
2020/12/27 10:54:29;;;;;;;2.10;0.70;;;7.40;63.50;;;;;;2265863;55;20989;-71
2020/12/27 10:56:55;;;;;;;1.42;0.60;;;7.50;63.30;;;;;;2258130;56;21582;-72
2020/12/27 10:59:22;;;;;;;1.55;0.60;;;7.50;63.30;;;;;;2248217;56;21401;-71
2020/12/27 11:01:49;;;;;;;3.17;0.90;;;7.60;63.40;;;;;;2486816;55;21569;-70
2020/12/27 11:04:16;;;;;;;9.40;3.80;;;7.60;63.70;;;;;;2490462;55;21067;-72
2020/12/27 11:06:42;;;;;;;6.43;3.22;;;7.60;64.10;;;;;;2489785;55;21009;-73
2020/12/27 11:09:10;;;;;;;4.25;2.10;;;7.70;64.40;;;;;;2265986;55;21425;-72
2020/12/27 11:11:37;;;;;;;2.60;1.20;;;7.70;64.00;;;;;;2484384;55;20977;-72
2020/12/27 11:14:07;;;;;;;3.00;1.30;;;7.80;64.50;;;;;;2261624;56;21862;-72
2020/12/27 11:16:34;;;;;;;4.93;1.83;;;7.80;64.00;;;;;;2462888;55;21929;-72
2020/12/27 11:19:01;;;;;;;2.70;0.98;;;7.90;64.20;;;;;;2264444;55;21028;-71
2020/12/27 11:21:28;;;;;;;6.15;3.05;;;7.90;64.30;;;;;;2261785;56;20984;-72
2020/12/27 11:23:59;;;;;;;5.90;2.67;;;8.00;63.80;;;;;;2264968;55;21477;-71
2020/12/27 11:26:26;;;;;;;3.20;1.40;;;8.00;64.00;;;;;;2490380;55;20992;-71
2020/12/27 11:28:54;;;;;;;2.00;0.70;;;8.00;63.70;;;;;;2489258;55;20944;-72
2020/12/27 11:31:20;;;;;;;1.33;0.60;;;8.10;63.80;;;;;;2490455;55;21493;-71
2020/12/27 11:33:47;;;;;;;1.27;0.50;;;8.10;63.90;;;;;;2490708;55;20964;-71
2020/12/27 11:36:14;;;;;;;1.37;0.50;;;8.20;64.30;;;;;;2265827;55;21073;-72
2020/12/27 11:38:41;;;;;;;1.90;0.60;;;8.20;63.70;;;;;;2489712;55;20996;-72
2020/12/27 11:41:11;;;;;;;1.65;0.60;;;8.30;63.90;;;;;;2491392;55;20960;-72
2020/12/27 11:43:41;;;;;;;1.62;0.70;;;8.30;62.60;;;;;;2490825;55;21035;-71
2020/12/27 11:46:08;;;;;;;3.17;1.20;;;8.40;62.90;;;;;;2464034;55;20968;-72
2020/12/27 11:48:36;;;;;;;2.37;1.10;;;8.40;63.20;;;;;;2247144;56;20980;-71
2020/12/27 11:51:03;;;;;;;2.30;0.77;;;8.50;63.30;;;;;;2490590;55;20972;-71
2020/12/27 11:53:30;;;;;;;1.33;0.55;;;8.50;62.90;;;;;;2262475;55;21918;-70
2020/12/27 11:55:57;;;;;;;1.05;0.50;;;8.50;60.30;;;;;;2265023;55;21027;-72
2020/12/27 11:58:24;;;;;;;1.20;0.50;;;8.50;61.50;;;;;;2251973;55;21056;-72
2020/12/27 12:00:50;;;;;;;1.42;0.43;;;8.50;61.90;;;;;;2267934;55;20990;-71
2020/12/27 12:03:20;;;;;;;1.08;0.50;;;8.50;61.70;;;;;;2254393;56;20991;-71
2020/12/27 12:05:47;;;;;;;1.42;0.60;;;8.60;61.90;;;;;;2262512;56;20956;-72
2020/12/27 12:08:13;;;;;;;0.95;0.47;;;8.60;62.10;;;;;;2262270;56;20960;-71
2020/12/27 12:10:40;;;;;;;1.52;0.60;;;8.60;61.60;;;;;;2490324;55;21661;-71
2020/12/27 12:13:07;;;;;;;0.55;0.37;;;8.60;60.90;;;;;;2478844;55;21001;-71
2020/12/27 12:15:33;;;;;;;1.00;0.50;;;8.60;61.80;;;;;;2489230;55;21032;-71
2020/12/27 12:18:04;;;;;;;2.08;0.60;;;8.70;61.80;;;;;;2260519;55;21060;-71
2020/12/27 12:20:42;;;;;;;1.73;0.50;;;8.70;62.20;;;;;;2490385;55;20983;-71
2020/12/27 12:23:09;;;;;;;1.35;0.50;;;8.80;61.80;;;;;;2261083;56;21500;-71
2020/12/27 12:25:40;;;;;;;0.80;0.37;;;8.80;62.20;;;;;;2489931;55;21077;-72
2020/12/27 12:28:07;;;;;;;0.55;0.30;;;8.80;61.70;;;;;;2261400;55;20964;-71
2020/12/27 12:30:33;;;;;;;1.10;0.50;;;8.90;62.20;;;;;;2490660;55;21017;-72
2020/12/27 12:33:01;;;;;;;2.65;0.52;;;8.90;62.30;;;;;;2262054;56;21441;-72
2020/12/27 12:35:36;;;;;;;1.55;0.60;;;8.90;62.80;;;;;;2489222;55;21028;-72
2020/12/27 12:38:03;;;;;;;1.12;0.50;;;9.00;63.10;;;;;;2258678;56;21016;-71
2020/12/27 12:40:29;;;;;;;2.55;0.93;;;9.00;63.30;;;;;;2262682;55;21044;-71
2020/12/27 12:42:56;;;;;;;1.50;0.60;;;9.10;63.60;;;;;;2269097;55;20964;-72
2020/12/27 12:45:22;;;;;;;2.35;1.05;;;9.10;63.90;;;;;;2264083;55;21308;-71
2020/12/27 12:47:49;;;;;;;2.40;1.40;;;9.20;63.60;;;;;;2260834;55;21529;-71
2020/12/27 12:50:19;;;;;;;2.00;0.90;;;9.20;64.00;;;;;;2261497;56;20944;-71
2020/12/27 12:52:45;;;;;;;1.62;0.80;;;9.20;63.30;;;;;;2247082;56;21008;-72
2020/12/27 12:55:12;;;;;;;1.25;0.55;;;9.30;63.00;;;;;;2263380;55;21042;-71
2020/12/27 12:57:38;;;;;;;3.22;0.70;;;9.30;63.00;;;;;;2257496;56;20991;-71
2020/12/27 13:00:06;;;;;;;1.52;0.70;;;9.40;62.80;;;;;;2470013;55;21049;-72
2020/12/27 13:02:32;;;;;;;1.98;0.60;;;9.40;62.10;;;;;;2474290;55;20956;-71
2020/12/27 13:04:59;;;;;;;1.70;0.70;;;9.40;62.50;;;;;;2263928;55;20972;-71
2020/12/27 13:07:25;;;;;;;2.08;0.65;;;9.40;62.50;;;;;;2259805;55;20992;-70
2020/12/27 13:09:51;;;;;;;1.23;0.60;;;9.40;62.50;;;;;;2482523;55;21056;-71